createdAt,value
2018-12-06T04:16:59.107Z,29.63
2018-12-06T04:19:27.674Z,29.10
2018-12-06T04:21:56.227Z,26.93
2018-12-06T04:24:24.554Z,25.73
2018-12-06T04:26:53.014Z,28.80
2018-12-06T04:29:21.570Z,25.20
2018-12-06T04:31:49.946Z,20.97
2018-12-06T04:34:18.510Z,24.77
2018-12-06T04:36:46.757Z,21.13
2018-12-06T04:39:15.085Z,23.47
2018-12-06T04:41:43.362Z,22.37
2018-12-06T04:44:11.990Z,19.95
2018-12-06T04:46:40.674Z,17.87
2018-12-06T04:49:08.946Z,16.90
2018-12-06T04:51:37.919Z,14.75
2018-12-06T04:54:06.734Z,19.70
2018-12-06T04:56:35.150Z,21.03
2018-12-06T04:59:04.126Z,14.58
2018-12-06T05:01:32.435Z,20.97
2018-12-06T05:04:00.702Z,17.13
2018-12-06T05:06:29.247Z,14.93
2018-12-06T05:08:57.863Z,17.90
2018-12-06T05:11:26.441Z,24.13
2018-12-06T05:13:54.698Z,21.33
2018-12-06T05:16:23.018Z,22.87
2018-12-06T05:18:51.380Z,21.07
2018-12-06T05:21:19.752Z,21.63
2018-12-06T05:23:48.291Z,18.50
2018-12-06T05:26:16.841Z,20.43
2018-12-06T05:28:45.934Z,23.10
2018-12-06T05:31:14.229Z,24.40
2018-12-06T05:33:42.694Z,24.80
2018-12-06T05:36:11.052Z,21.60
2018-12-06T05:38:39.594Z,20.43
2018-12-06T05:41:08.171Z,30.08
2018-12-06T05:43:36.450Z,24.20
2018-12-06T05:46:05.047Z,26.50
2018-12-06T05:48:33.564Z,20.30
2018-12-06T05:51:01.826Z,25.37
2018-12-06T05:53:30.552Z,23.90
2018-12-06T05:55:59.118Z,20.57
2018-12-06T05:58:27.378Z,22.53
2018-12-06T06:00:55.916Z,20.60
2018-12-06T06:03:24.426Z,22.47
2018-12-06T06:05:52.959Z,29.55
2018-12-06T06:08:21.274Z,27.50
2018-12-06T06:10:49.737Z,31.60
2018-12-06T06:13:18.093Z,29.83
2018-12-06T06:15:46.600Z,29.80
2018-12-06T06:18:15.259Z,29.63
2018-12-06T06:20:43.818Z,32.95
2018-12-06T06:23:12.404Z,29.10
2018-12-06T06:25:40.951Z,27.67
2018-12-06T06:28:09.358Z,30.57
2018-12-06T06:30:37.935Z,24.95
2018-12-06T06:33:06.487Z,25.43
2018-12-06T06:35:35.043Z,26.30
2018-12-06T06:38:03.556Z,23.70
2018-12-06T06:40:32.237Z,20.53
2018-12-06T06:43:00.694Z,22.40
2018-12-06T06:45:29.262Z,26.53
2018-12-06T06:47:57.535Z,24.70
2018-12-06T06:50:26.077Z,24.47
2018-12-06T06:52:54.434Z,27.57
2018-12-06T06:55:22.994Z,26.93
2018-12-06T06:57:52.034Z,27.22
2018-12-06T07:00:20.688Z,23.10
2018-12-06T07:02:49.267Z,21.17
2018-12-06T07:05:17.659Z,22.20
2018-12-06T07:07:46.297Z,22.22
2018-12-06T07:10:14.566Z,38.63
2018-12-06T07:12:43.862Z,20.07
2018-12-06T07:15:13.592Z,24.00
2018-12-06T07:17:41.879Z,25.03
2018-12-06T07:20:10.683Z,24.77
2018-12-06T07:22:40.253Z,25.10
2018-12-06T07:25:10.522Z,26.10
2018-12-06T07:27:39.050Z,24.37
2018-12-06T07:30:12.216Z,18.93
2018-12-06T07:32:38.802Z,22.40
2018-12-06T07:35:09.224Z,21.00
2018-12-06T07:37:37.522Z,21.27
2018-12-06T07:40:07.138Z,19.00
2018-12-06T07:42:35.658Z,22.70
2018-12-06T07:45:05.514Z,22.13
2018-12-06T07:47:34.009Z,28.93
2018-12-06T07:50:03.229Z,21.17
2018-12-06T07:52:31.578Z,22.47
2018-12-06T07:55:00.123Z,23.53
2018-12-06T07:57:28.931Z,18.55
2018-12-06T07:59:57.859Z,17.07
2018-12-06T08:02:26.545Z,16.90
2018-12-06T08:04:55.522Z,15.73
2018-12-06T08:07:25.188Z,17.67
2018-12-06T08:09:53.464Z,13.60
2018-12-06T08:12:21.801Z,21.60
2018-12-06T08:14:50.748Z,12.33
2018-12-06T08:17:19.450Z,12.70
2018-12-06T08:19:49.082Z,12.23
2018-12-06T08:22:17.342Z,9.40
2018-12-06T08:24:46.384Z,13.30
2018-12-06T08:27:14.694Z,11.83
2018-12-06T08:29:43.162Z,8.53
2018-12-06T08:32:13.167Z,8.90
2018-12-06T08:34:41.883Z,10.43
2018-12-06T08:37:10.165Z,7.87
2018-12-06T08:39:38.934Z,10.03
2018-12-06T08:42:07.222Z,11.27
2018-12-06T08:44:35.565Z,8.67
2018-12-06T08:47:03.978Z,11.67
2018-12-06T08:49:32.778Z,7.33
2018-12-06T08:52:01.832Z,8.00
2018-12-06T08:54:30.645Z,6.83
2018-12-06T08:56:59.369Z,9.30
2018-12-06T08:59:27.626Z,8.13
2018-12-06T09:01:55.922Z,8.97
2018-12-06T09:04:24.636Z,9.63
2018-12-06T09:06:57.668Z,7.43
2018-12-06T09:09:30.937Z,8.90
2018-12-06T09:12:06.526Z,7.37
2018-12-06T09:14:34.814Z,5.77
2018-12-06T09:17:03.498Z,7.53
2018-12-06T09:19:32.055Z,5.40
2018-12-06T09:22:05.174Z,10.70
2018-12-06T09:24:33.642Z,6.80
2018-12-06T09:27:02.517Z,6.20
2018-12-06T09:29:32.767Z,10.20
2018-12-06T09:32:01.118Z,6.60
2018-12-06T09:34:29.649Z,6.50
2018-12-06T09:36:57.995Z,3.80
2018-12-06T09:39:26.758Z,6.70
2018-12-06T09:41:55.310Z,10.10
2018-12-06T09:44:23.714Z,7.03
2018-12-06T09:46:52.250Z,9.13
2018-12-06T09:49:20.631Z,9.30
2018-12-06T09:51:48.913Z,4.30
2018-12-06T09:54:19.511Z,5.30
2018-12-06T09:56:49.090Z,5.26
2018-12-06T09:59:17.658Z,5.80
2018-12-06T10:01:46.259Z,4.13
2018-12-06T10:04:14.562Z,14.03
2018-12-06T10:06:42.842Z,4.67
2018-12-06T10:09:11.110Z,8.43
2018-12-06T10:11:40.434Z,4.97
2018-12-06T10:14:08.698Z,6.23
2018-12-06T10:16:38.993Z,7.47
2018-12-06T10:19:08.605Z,8.55
2018-12-06T10:21:38.454Z,8.23
2018-12-06T10:24:07.450Z,9.00
2018-12-06T10:26:41.499Z,5.70
2018-12-06T10:29:09.772Z,9.17
2018-12-06T10:31:38.222Z,7.40
2018-12-06T10:34:07.193Z,5.43
2018-12-06T10:36:40.578Z,6.43
2018-12-06T10:39:09.565Z,8.30
2018-12-06T10:41:38.598Z,6.43
2018-12-06T10:44:08.662Z,7.07
2018-12-06T10:46:37.198Z,7.90
2018-12-06T10:49:10.297Z,9.70
2018-12-06T10:51:42.638Z,5.30
2018-12-06T10:54:11.223Z,6.55
2018-12-06T10:56:44.430Z,5.73
2018-12-06T10:59:12.695Z,7.60
2018-12-06T11:01:52.218Z,9.47
2018-12-06T11:04:22.885Z,7.00
2018-12-06T11:06:51.633Z,10.60
2018-12-06T11:09:21.258Z,8.68
2018-12-06T11:11:49.545Z,9.17
2018-12-06T11:14:18.074Z,6.27
2018-12-06T11:16:46.714Z,7.03
2018-12-06T11:19:15.870Z,8.13
2018-12-06T11:21:44.405Z,12.20
2018-12-06T11:24:12.719Z,8.67
2018-12-06T11:26:45.750Z,8.60
2018-12-06T11:29:14.307Z,8.00
2018-12-06T11:31:46.742Z,7.12
2018-12-06T11:34:15.031Z,6.50
2018-12-06T11:36:47.495Z,8.88
2018-12-06T11:39:16.621Z,6.87
2018-12-06T11:41:44.898Z,10.63
2018-12-06T11:44:17.791Z,8.23
2018-12-06T11:46:46.067Z,7.73
2018-12-06T11:49:14.763Z,8.43
2018-12-06T11:51:44.657Z,8.27
2018-12-06T11:54:13.209Z,25.23
2018-12-06T11:56:41.550Z,25.30
2018-12-06T11:59:15.595Z,6.15
2018-12-06T12:01:44.845Z,7.00
2018-12-06T12:04:13.154Z,4.53
2018-12-06T12:06:42.254Z,5.00
2018-12-06T12:09:10.608Z,6.53
2018-12-06T12:11:38.879Z,3.87
2018-12-06T12:14:07.177Z,4.00
2018-12-06T12:16:35.725Z,4.15
2018-12-06T12:19:04.824Z,4.67
2018-12-06T12:21:33.390Z,4.10
2018-12-06T12:24:01.641Z,3.53
2018-12-06T12:26:30.190Z,4.33
2018-12-06T12:28:58.823Z,4.58
2018-12-06T12:31:27.221Z,5.07
2018-12-06T12:33:55.499Z,3.97
2018-12-06T12:36:25.507Z,3.63
2018-12-06T12:38:53.772Z,7.13
2018-12-06T12:41:22.220Z,4.20
2018-12-06T12:43:54.211Z,3.43
2018-12-06T12:46:24.858Z,3.60
2018-12-06T12:48:53.606Z,3.43
2018-12-06T12:51:21.990Z,3.93
2018-12-06T12:53:50.526Z,4.00
2018-12-06T12:56:23.339Z,4.70
2018-12-06T12:58:51.606Z,3.40
2018-12-06T13:01:20.541Z,3.50
2018-12-06T13:03:48.860Z,3.07
2018-12-06T13:06:17.200Z,2.67
2018-12-06T13:08:46.043Z,2.17
2018-12-06T13:11:14.653Z,2.67
2018-12-06T13:13:43.310Z,2.80
2018-12-06T13:16:12.433Z,2.37
2018-12-06T13:18:41.248Z,2.80
2018-12-06T13:21:10.601Z,2.07
2018-12-06T13:23:38.863Z,5.17
2018-12-06T13:26:12.334Z,3.92
2018-12-06T13:28:41.866Z,3.17
2018-12-06T13:31:10.402Z,5.35
2018-12-06T13:33:39.143Z,2.47
2018-12-06T13:36:09.359Z,4.13
2018-12-06T13:38:38.299Z,1.83
2018-12-06T13:41:06.894Z,2.05
2018-12-06T13:43:35.318Z,1.60
2018-12-06T13:46:04.302Z,2.40
2018-12-06T13:48:33.110Z,3.30
2018-12-06T13:51:02.546Z,1.83
2018-12-06T13:53:36.512Z,1.80
2018-12-06T13:56:05.198Z,1.67
2018-12-06T13:58:37.745Z,2.47
2018-12-06T14:01:06.296Z,1.53
2018-12-06T14:03:40.005Z,3.50
2018-12-06T14:06:11.997Z,3.17
2018-12-06T14:08:40.343Z,2.03
2018-12-06T14:11:12.293Z,4.97
2018-12-06T14:13:40.684Z,1.57
2018-12-06T14:16:10.623Z,1.62
2018-12-06T14:18:39.897Z,3.13
2018-12-06T14:21:08.693Z,1.95
2018-12-06T14:23:37.498Z,3.55
2018-12-06T14:26:06.230Z,2.62
2018-12-06T14:28:34.687Z,32.77
2018-12-06T14:31:03.029Z,7.57
2018-12-06T14:33:37.103Z,5.23
2018-12-06T14:36:05.662Z,5.80
2018-12-06T14:38:34.007Z,3.90
2018-12-06T14:41:02.593Z,4.60
2018-12-06T14:43:32.158Z,8.10
2018-12-06T14:46:00.430Z,3.20
2018-12-06T14:48:29.936Z,2.70
2018-12-06T14:50:58.235Z,6.27
2018-12-06T14:53:28.769Z,2.12
2018-12-06T14:55:57.359Z,1.98
2018-12-06T14:58:25.826Z,2.30
2018-12-06T15:00:55.332Z,2.30
2018-12-06T15:03:23.934Z,1.87
2018-12-06T15:05:54.977Z,2.27
2018-12-06T15:08:23.801Z,3.03
2018-12-06T15:10:52.359Z,2.05
2018-12-06T15:13:20.902Z,2.90
2018-12-06T15:15:50.067Z,2.00
2018-12-06T15:18:18.619Z,1.57
2018-12-06T15:20:52.414Z,2.22
2018-12-06T15:23:20.747Z,6.33
2018-12-06T15:25:49.746Z,2.63
2018-12-06T15:28:18.090Z,5.27
2018-12-06T15:30:46.659Z,1.45
2018-12-06T15:33:15.690Z,2.03
2018-12-06T15:35:44.290Z,1.90
2018-12-06T15:38:12.838Z,1.57
2018-12-06T15:40:42.917Z,3.07
2018-12-06T15:43:11.187Z,7.83
2018-12-06T15:45:39.491Z,3.30
2018-12-06T15:48:08.363Z,1.80
2018-12-06T15:50:36.843Z,3.53
2018-12-06T15:53:05.697Z,2.57
2018-12-06T15:55:38.003Z,5.03
2018-12-06T15:58:06.707Z,1.93
2018-12-06T16:00:35.223Z,2.62
2018-12-06T16:03:05.253Z,2.47
2018-12-06T16:05:33.525Z,2.20
2018-12-06T16:08:02.093Z,3.20
2018-12-06T16:10:30.682Z,2.05
2018-12-06T16:12:59.014Z,6.10
2018-12-06T16:15:28.553Z,1.83
2018-12-06T16:17:57.139Z,3.07
2018-12-06T16:20:25.487Z,2.70
2018-12-06T16:22:54.639Z,1.83
2018-12-06T16:25:23.671Z,2.00
2018-12-06T16:27:52.237Z,3.40
2018-12-06T16:30:20.938Z,2.07
2018-12-06T16:32:54.921Z,2.20
2018-12-06T16:35:23.331Z,2.63
2018-12-06T16:37:51.865Z,3.62
2018-12-06T16:40:23.558Z,4.75
2018-12-06T16:42:52.554Z,2.87
2018-12-06T16:45:21.091Z,2.55
2018-12-06T16:47:50.653Z,2.10
2018-12-06T16:50:19.330Z,2.70
2018-12-06T16:52:51.111Z,2.77
2018-12-06T16:55:19.676Z,2.85
2018-12-06T16:57:48.215Z,3.63
2018-12-06T17:00:17.642Z,2.75
2018-12-06T17:02:45.906Z,2.77
2018-12-06T17:06:54.032Z,3.85
2018-12-06T17:09:23.263Z,2.60
2018-12-06T17:11:51.794Z,2.10
2018-12-06T17:14:20.082Z,2.40
2018-12-06T17:16:48.882Z,2.67
2018-12-06T17:19:22.858Z,7.08
2018-12-06T17:21:51.434Z,2.55
2018-12-06T17:24:22.415Z,2.65
2018-12-06T17:26:50.943Z,2.37
2018-12-06T17:29:19.333Z,1.87
2018-12-06T17:31:47.875Z,2.67
2018-12-06T17:34:16.190Z,2.13
2018-12-06T17:36:45.464Z,2.17
2018-12-06T17:39:13.878Z,2.10
2018-12-06T17:41:43.009Z,1.97
2018-12-06T17:44:11.595Z,4.20
2018-12-06T17:46:40.159Z,5.53
2018-12-06T17:49:08.461Z,2.77
2018-12-06T17:51:37.422Z,2.85
2018-12-06T17:54:06.000Z,2.47
2018-12-06T17:56:35.301Z,2.50
2018-12-06T17:59:08.193Z,2.67
2018-12-06T18:01:36.606Z,2.90
2018-12-06T18:07:14.419Z,2.37
2018-12-06T18:09:42.827Z,2.40
2018-12-06T18:12:11.850Z,2.60
2018-12-06T18:14:40.174Z,2.93
2018-12-06T18:17:08.482Z,1.97
2018-12-06T18:19:37.606Z,2.43
2018-12-06T18:22:05.934Z,2.70
2018-12-06T18:24:34.333Z,11.07
2018-12-06T18:27:04.292Z,2.80
2018-12-06T18:29:32.639Z,4.40
2018-12-06T18:32:00.932Z,3.27
2018-12-06T18:34:29.295Z,3.13
2018-12-06T18:36:57.614Z,2.73
2018-12-06T18:39:25.886Z,3.50
2018-12-06T18:41:54.308Z,4.47
2018-12-06T18:44:23.975Z,3.50
2018-12-06T18:46:52.395Z,4.10
2018-12-06T18:49:21.869Z,3.07
2018-12-06T18:51:50.274Z,3.37
2018-12-06T18:54:18.897Z,3.97
2018-12-06T18:56:47.166Z,3.80
2018-12-06T18:59:15.619Z,3.13
2018-12-06T19:01:44.211Z,4.03
2018-12-06T19:04:12.911Z,3.37
2018-12-06T19:06:44.636Z,4.90
2018-12-06T19:09:13.708Z,3.50
2018-12-06T19:11:42.885Z,3.40
2018-12-06T19:14:12.947Z,3.43
2018-12-06T19:16:42.830Z,3.60
2018-12-06T19:19:11.603Z,6.37
2018-12-06T19:21:40.311Z,3.45
2018-12-06T19:24:10.273Z,2.70
2018-12-06T19:26:38.833Z,7.57
2018-12-06T19:29:08.717Z,2.50
2018-12-06T19:31:37.267Z,3.73
2018-12-06T19:34:05.811Z,3.13
2018-12-06T19:36:34.759Z,3.13
2018-12-06T19:39:04.581Z,4.90
2018-12-06T19:41:32.873Z,3.20
2018-12-06T19:44:01.846Z,2.90
2018-12-06T19:46:30.258Z,6.03
2018-12-06T19:48:59.646Z,4.00
2018-12-06T19:51:28.309Z,3.17
2018-12-06T19:53:56.681Z,3.57
2018-12-06T19:56:25.637Z,4.08
2018-12-06T19:58:54.322Z,3.13
2018-12-06T20:01:23.878Z,3.83
2018-12-06T20:03:52.428Z,3.52
2018-12-06T20:06:20.959Z,3.40
2018-12-06T20:08:49.344Z,4.30
2018-12-06T20:11:18.165Z,4.23
2018-12-06T20:13:48.074Z,4.13
2018-12-06T20:16:16.936Z,3.50
2018-12-06T20:18:47.741Z,7.30
2018-12-06T20:21:17.519Z,4.10
2018-12-06T20:23:46.113Z,3.72
2018-12-06T20:26:14.398Z,4.27
2018-12-06T20:28:43.741Z,6.10
2018-12-06T20:31:12.022Z,4.77
2018-12-06T20:33:40.482Z,4.50
2018-12-06T20:36:09.151Z,4.40
2018-12-06T20:38:37.474Z,3.40
2018-12-06T20:41:05.775Z,3.27
2018-12-06T20:43:34.111Z,3.43
2018-12-06T20:46:03.369Z,3.37
2018-12-06T20:48:31.927Z,3.00
2018-12-06T20:51:00.783Z,3.23
2018-12-06T20:53:29.311Z,4.25
2018-12-06T20:55:58.009Z,3.90
2018-12-06T20:58:26.659Z,3.97
2018-12-06T21:00:55.212Z,2.43
2018-12-06T21:03:23.530Z,3.40
2018-12-06T21:05:52.102Z,2.58
2018-12-06T21:08:20.935Z,3.00
2018-12-06T21:10:49.336Z,2.20
2018-12-06T21:13:18.439Z,2.17
2018-12-06T21:15:47.009Z,2.07
2018-12-06T21:18:15.392Z,1.80
2018-12-06T21:20:43.971Z,2.10
2018-12-06T21:23:13.377Z,2.80
2018-12-06T21:25:42.401Z,1.97
2018-12-06T21:28:11.531Z,1.83
2018-12-06T21:30:40.129Z,1.80
2018-12-06T21:33:09.346Z,2.37
2018-12-06T21:35:37.726Z,1.87
2018-12-06T21:38:07.758Z,1.57
2018-12-06T21:40:36.298Z,2.40
2018-12-06T21:43:04.909Z,1.60
2018-12-06T21:45:33.675Z,1.37
2018-12-06T21:48:02.593Z,2.10
2018-12-06T21:50:31.190Z,1.30
2018-12-06T21:52:59.751Z,1.20
2018-12-06T21:55:28.369Z,1.97
2018-12-06T21:57:56.661Z,6.63
2018-12-06T22:00:25.516Z,2.70
2018-12-06T22:02:54.062Z,1.67
2018-12-06T22:05:22.730Z,2.57
2018-12-06T22:07:51.694Z,1.60
2018-12-06T22:10:19.963Z,1.63
2018-12-06T22:12:48.542Z,1.15
2018-12-06T22:15:16.843Z,2.87
2018-12-06T22:17:45.126Z,1.70
2018-12-06T22:20:13.898Z,1.37
2018-12-06T22:22:42.537Z,1.50
2018-12-06T22:25:10.833Z,2.03
2018-12-06T22:27:39.525Z,1.75
2018-12-06T22:30:08.810Z,1.30
2018-12-06T22:32:37.790Z,1.30
2018-12-06T22:35:07.098Z,0.90
2018-12-06T22:37:35.648Z,1.23
2018-12-06T22:40:05.905Z,1.33
2018-12-06T22:42:34.202Z,2.10
2018-12-06T22:45:12.557Z,1.30
2018-12-06T22:47:40.851Z,1.43
2018-12-06T22:50:09.150Z,3.00
2018-12-06T22:52:37.454Z,1.67
2018-12-06T22:55:06.734Z,1.33
2018-12-06T22:57:35.686Z,1.20
